Time;durP1;ratioP1;P1;durP2;ratioP2;P2;SDS_P1;SDS_P2;PMS_P1;PMS_P2;Temp;Humidity;BMP_temperature;BMP_pressure;BME280_temperature;BME280_humidity;BME280_pressure;Samples;Min_cycle;Max_cycle;Signal;HPM_P1;HPM_P2
2022/10/12 05:10:19;;;;;;;140.65;68.10;;;;;;;;;;4954730;23;20055;-59
2022/10/12 05:12:45;;;;;;;135.93;64.20;;;;;;;;;;4952831;29;20031;-62
2022/10/12 05:15:11;;;;;;;127.10;63.53;;;;;;;;;;4952787;29;20101;-59
2022/10/12 05:17:37;;;;;;;131.30;64.68;;;;;;;;;;4951715;29;20028;-60
2022/10/12 05:20:04;;;;;;;130.88;64.95;;;;;;;;;;4951839;29;20062;-59
2022/10/12 05:22:30;;;;;;;137.55;66.57;;;;;;;;;;4951492;29;20039;-60
2022/10/12 05:24:56;;;;;;;139.02;66.18;;;;;;;;;;4951950;29;20019;-59
2022/10/12 05:27:22;;;;;;;135.93;65.55;;;;;;;;;;4951143;29;20509;-60
2022/10/12 05:29:48;;;;;;;132.13;67.22;;;;;;;;;;4947452;29;20027;-60
2022/10/12 05:32:15;;;;;;;136.10;66.93;;;;;;;;;;4952459;29;20501;-66
2022/10/12 05:34:42;;;;;;;135.55;64.45;;;;;;;;;;4952685;29;20037;-61
2022/10/12 05:37:08;;;;;;;134.85;66.18;;;;;;;;;;4952306;29;20043;-60
2022/10/12 05:39:36;;;;;;;133.82;64.53;;;;;;;;;;4952187;29;20031;-58
2022/10/12 05:42:02;;;;;;;158.35;71.68;;;;;;;;;;4951150;29;20119;-68
2022/10/12 05:44:28;;;;;;;149.48;70.22;;;;;;;;;;4951279;29;20032;-58
2022/10/12 05:46:54;;;;;;;149.55;67.93;;;;;;;;;;4951811;29;20455;-57
2022/10/12 05:49:20;;;;;;;150.57;70.78;;;;;;;;;;4952700;29;20443;-64
2022/10/12 05:51:46;;;;;;;145.85;68.10;;;;;;;;;;4952474;29;20380;-58
2022/10/12 05:54:12;;;;;;;146.35;68.15;;;;;;;;;;4952520;29;20046;-60
2022/10/12 05:56:38;;;;;;;147.43;68.45;;;;;;;;;;4952641;29;20098;-60
2022/10/12 05:59:04;;;;;;;139.82;68.38;;;;;;;;;;4952747;29;20043;-60
2022/10/12 06:01:30;;;;;;;136.48;67.05;;;;;;;;;;4952880;29;20066;-59
2022/10/12 06:03:56;;;;;;;141.40;67.30;;;;;;;;;;4951998;29;20078;-66
2022/10/12 06:06:22;;;;;;;141.18;67.25;;;;;;;;;;4952521;29;20074;-63
2022/10/12 06:08:48;;;;;;;135.18;65.07;;;;;;;;;;4958307;28;20043;-60
2022/10/12 06:11:14;;;;;;;136.60;66.75;;;;;;;;;;4953729;28;20052;-68
2022/10/12 06:13:41;;;;;;;130.40;65.93;;;;;;;;;;4970726;28;20030;-70
2022/10/12 06:16:07;;;;;;;138.55;65.53;;;;;;;;;;4969993;28;20035;-68
2022/10/12 06:18:33;;;;;;;128.57;64.78;;;;;;;;;;4970430;28;20030;-70
2022/10/12 06:20:59;;;;;;;138.60;66.22;;;;;;;;;;4971192;28;20113;-59
2022/10/12 06:23:25;;;;;;;133.90;67.07;;;;;;;;;;4970628;28;20019;-58
2022/10/12 06:25:51;;;;;;;126.13;62.78;;;;;;;;;;4970351;28;20050;-59
2022/10/12 06:28:21;;;;;;;136.55;65.03;;;;;;;;;;4970343;28;20434;-60
2022/10/12 06:30:54;;;;;;;124.20;63.15;;;;;;;;;;4970452;28;20533;-63
2022/10/12 06:33:20;;;;;;;125.03;63.83;;;;;;;;;;4969185;28;20093;-61
2022/10/12 06:35:47;;;;;;;120.45;61.92;;;;;;;;;;4971477;28;20122;-58
2022/10/12 06:38:13;;;;;;;126.80;62.20;;;;;;;;;;4971636;28;20030;-58
2022/10/12 06:40:39;;;;;;;113.80;61.47;;;;;;;;;;4973465;28;20035;-69
2022/10/12 06:43:05;;;;;;;121.00;62.03;;;;;;;;;;4974642;28;20459;-62
2022/10/12 06:45:31;;;;;;;117.57;61.97;;;;;;;;;;4974276;28;20034;-64
2022/10/12 06:47:57;;;;;;;109.75;60.30;;;;;;;;;;4973115;28;20061;-64
2022/10/12 06:50:25;;;;;;;112.03;58.97;;;;;;;;;;4969023;28;20467;-65
2022/10/12 06:52:51;;;;;;;110.07;57.85;;;;;;;;;;4974717;28;20027;-63
2022/10/12 06:55:17;;;;;;;111.20;60.72;;;;;;;;;;4974675;28;20459;-71
2022/10/12 06:57:43;;;;;;;108.80;59.08;;;;;;;;;;4974911;28;20034;-58
2022/10/12 07:00:10;;;;;;;113.00;58.53;;;;;;;;;;4975121;28;20098;-65
2022/10/12 07:02:36;;;;;;;107.22;59.97;;;;;;;;;;4974947;28;20134;-58
2022/10/12 07:05:03;;;;;;;107.47;59.50;;;;;;;;;;4957092;28;20043;-60
2022/10/12 07:07:30;;;;;;;109.30;59.08;;;;;;;;;;4974427;28;20023;-65
2022/10/12 07:09:56;;;;;;;113.43;61.13;;;;;;;;;;4974268;28;20047;-71
2022/10/12 07:12:22;;;;;;;105.53;58.40;;;;;;;;;;4974111;28;20046;-60
2022/10/12 07:14:48;;;;;;;105.85;59.88;;;;;;;;;;4973833;28;20505;-71
2022/10/12 07:17:14;;;;;;;104.18;58.10;;;;;;;;;;4973910;28;20126;-70
2022/10/12 07:19:40;;;;;;;106.75;61.38;;;;;;;;;;4974248;28;20023;-59
2022/10/12 07:22:06;;;;;;;105.95;60.45;;;;;;;;;;4973794;28;20110;-69
2022/10/12 07:24:35;;;;;;;103.72;58.22;;;;;;;;;;4974315;28;20034;-60
2022/10/12 07:27:08;;;;;;;102.32;58.13;;;;;;;;;;4974191;28;20105;-60
2022/10/12 07:29:35;;;;;;;100.30;58.75;;;;;;;;;;4974124;28;20034;-62
2022/10/12 07:32:02;;;;;;;104.63;60.28;;;;;;;;;;4974036;28;20026;-66
2022/10/12 07:34:28;;;;;;;104.20;59.75;;;;;;;;;;4956598;28;20070;-59
2022/10/12 07:36:54;;;;;;;104.75;58.97;;;;;;;;;;4974125;28;20110;-65
2022/10/12 07:39:21;;;;;;;98.53;57.15;;;;;;;;;;4973880;28;20106;-62
2022/10/12 07:41:50;;;;;;;93.45;55.08;;;;;;;;;;4981544;28;20075;-67
2022/10/12 07:44:16;;;;;;;95.80;57.42;;;;;;;;;;4976017;28;20073;-58
2022/10/12 07:46:42;;;;;;;100.28;59.20;;;;;;;;;;4974072;28;20141;-64
2022/10/12 07:49:11;;;;;;;91.57;56.65;;;;;;;;;;4973525;28;20027;-61
2022/10/12 07:51:37;;;;;;;101.72;57.38;;;;;;;;;;4973339;28;20027;-67
2022/10/12 07:54:03;;;;;;;109.53;60.13;;;;;;;;;;4973506;28;20486;-61
2022/10/12 07:56:29;;;;;;;100.97;59.17;;;;;;;;;;4956169;28;20039;-66
2022/10/12 07:58:56;;;;;;;105.88;58.30;;;;;;;;;;4974156;28;20458;-64
2022/10/12 08:01:24;;;;;;;101.85;59.55;;;;;;;;;;4956784;28;20122;-66
2022/10/12 08:03:51;;;;;;;100.65;58.53;;;;;;;;;;4973373;28;20026;-59
2022/10/12 08:06:18;;;;;;;102.60;59.13;;;;;;;;;;4974049;28;20018;-65
2022/10/12 08:08:44;;;;;;;102.25;59.72;;;;;;;;;;4979880;28;20054;-65
2022/10/12 08:11:11;;;;;;;100.72;59.25;;;;;;;;;;4956653;28;20039;-58
2022/10/12 08:13:37;;;;;;;97.85;56.75;;;;;;;;;;4973121;28;20035;-59
2022/10/12 08:16:04;;;;;;;95.55;55.90;;;;;;;;;;4972906;28;20474;-59
2022/10/12 08:18:30;;;;;;;97.78;57.70;;;;;;;;;;4973205;28;20027;-59
2022/10/12 08:20:56;;;;;;;96.85;58.05;;;;;;;;;;4973781;28;20031;-59
2022/10/12 08:23:22;;;;;;;89.93;55.90;;;;;;;;;;4974660;28;20049;-59
2022/10/12 08:25:52;;;;;;;94.80;57.15;;;;;;;;;;4972814;28;20029;-69
2022/10/12 08:28:18;;;;;;;93.25;55.95;;;;;;;;;;4972780;28;20398;-69
2022/10/12 08:30:44;;;;;;;87.13;53.92;;;;;;;;;;4972711;28;20030;-61
2022/10/12 08:33:10;;;;;;;90.28;54.42;;;;;;;;;;4972968;28;20494;-57
2022/10/12 08:35:39;;;;;;;92.45;56.28;;;;;;;;;;4972746;28;20038;-58
2022/10/12 08:38:06;;;;;;;91.78;57.88;;;;;;;;;;4972862;28;20105;-59
2022/10/12 08:40:34;;;;;;;93.25;57.97;;;;;;;;;;4972850;28;20463;-59
2022/10/12 08:43:23;;;;;;;90.47;56.83;;;;;;;;;;4972567;28;20065;-66
2022/10/12 08:45:54;;;;;;;95.22;57.65;;;;;;;;;;4969198;28;20553;-59
2022/10/12 08:48:20;;;;;;;91.13;59.03;;;;;;;;;;4968860;28;20545;-59
2022/10/12 08:50:49;;;;;;;94.70;56.83;;;;;;;;;;4971461;28;20102;-59
2022/10/12 08:53:35;;;;;;;81.03;50.42;;;;;;;;;;4968382;28;20070;-61
2022/10/12 08:56:02;;;;;;;59.63;38.22;;;;;;;;;;4975425;28;20438;-59
2022/10/12 08:58:32;;;;;;;68.85;44.00;;;;;;;;;;4971182;28;20058;-60
2022/10/12 09:01:01;;;;;;;67.75;42.58;;;;;;;;;;4971100;28;20359;-60
2022/10/12 09:03:33;;;;;;;62.03;39.53;;;;;;;;;;4970372;28;20423;-63
2022/10/12 09:05:59;;;;;;;69.10;40.53;;;;;;;;;;4971143;28;20027;-64
2022/10/12 09:08:31;;;;;;;59.08;37.53;;;;;;;;;;4973095;28;20029;-60
2022/10/12 09:11:23;;;;;;;63.58;40.03;;;;;;;;;;4971025;28;20538;-62
2022/10/12 09:14:07;;;;;;;49.40;33.00;;;;;;;;;;4969723;28;20510;-70
2022/10/12 09:16:35;;;;;;;58.58;37.78;;;;;;;;;;4974253;28;20125;-64
2022/10/12 18:15:43;;;;;;;64.93;38.08;;;;;;;;;;5146089;23;20047;-59
2022/10/12 18:18:09;;;;;;;61.40;35.97;;;;;;;;;;4932648;29;20538;-63
2022/10/12 18:20:39;;;;;;;61.25;34.80;;;;;;;;;;4932890;29;20395;-62
2022/10/12 18:23:05;;;;;;;60.03;34.95;;;;;;;;;;4932680;29;20086;-60
2022/10/12 18:25:31;;;;;;;60.47;34.45;;;;;;;;;;4932543;29;20124;-65
2022/10/12 18:27:57;;;;;;;59.05;34.10;;;;;;;;;;4942675;29;20484;-64
2022/10/12 18:30:23;;;;;;;60.25;35.05;;;;;;;;;;4950952;29;20073;-59
2022/10/12 18:32:49;;;;;;;63.78;35.33;;;;;;;;;;4951091;29;20468;-63
2022/10/12 18:35:15;;;;;;;61.63;34.92;;;;;;;;;;4952565;28;20023;-60
2022/10/12 18:37:41;;;;;;;64.45;34.88;;;;;;;;;;4955269;29;20549;-63
2022/10/12 18:40:07;;;;;;;60.17;35.65;;;;;;;;;;4954954;29;20039;-60
2022/10/12 18:42:33;;;;;;;56.58;35.40;;;;;;;;;;4955167;29;20023;-59
2022/10/12 18:44:59;;;;;;;68.28;36.38;;;;;;;;;;4955202;29;20387;-60
2022/10/12 18:47:25;;;;;;;58.72;36.35;;;;;;;;;;4955294;29;20447;-60
2022/10/12 18:49:51;;;;;;;61.35;35.00;;;;;;;;;;4955069;29;20081;-63
2022/10/12 18:52:19;;;;;;;62.55;36.40;;;;;;;;;;4954811;29;20054;-60
2022/10/12 18:54:46;;;;;;;58.85;36.13;;;;;;;;;;4955057;29;20023;-69
2022/10/12 18:57:12;;;;;;;58.72;35.15;;;;;;;;;;4954762;29;20062;-60
2022/10/12 18:59:38;;;;;;;60.75;36.30;;;;;;;;;;4954782;29;20494;-60
2022/10/12 19:02:05;;;;;;;61.28;35.95;;;;;;;;;;4954679;29;20024;-60
2022/10/12 19:04:31;;;;;;;63.17;36.40;;;;;;;;;;4954578;29;20027;-60
2022/10/12 19:06:57;;;;;;;62.92;35.17;;;;;;;;;;4954803;29;20059;-68
2022/10/12 19:09:23;;;;;;;59.15;35.72;;;;;;;;;;4955015;29;20395;-60
2022/10/12 19:11:49;;;;;;;59.03;35.17;;;;;;;;;;4954493;29;20031;-60
2022/10/12 19:14:15;;;;;;;61.28;34.55;;;;;;;;;;4954068;29;20060;-60
2022/10/12 19:16:42;;;;;;;61.85;36.90;;;;;;;;;;4969603;28;20539;-69
2022/10/12 19:19:10;;;;;;;58.13;35.60;;;;;;;;;;4973359;28;20059;-59
2022/10/12 19:21:37;;;;;;;58.25;35.65;;;;;;;;;;4973771;28;20037;-60
2022/10/12 19:24:04;;;;;;;62.42;36.38;;;;;;;;;;4973959;28;20027;-59
2022/10/12 19:26:31;;;;;;;55.78;35.63;;;;;;;;;;4973747;28;20081;-60
2022/10/12 19:28:57;;;;;;;63.53;36.42;;;;;;;;;;4973617;28;20034;-67
2022/10/12 19:31:25;;;;;;;61.90;36.38;;;;;;;;;;4973807;28;20027;-61
2022/10/12 19:33:53;;;;;;;61.20;37.53;;;;;;;;;;4974011;28;20105;-60
2022/10/12 19:36:19;;;;;;;57.05;36.83;;;;;;;;;;4973802;28;20120;-60
2022/10/12 19:38:45;;;;;;;64.10;37.00;;;;;;;;;;4973815;28;20106;-61
2022/10/12 19:41:12;;;;;;;61.45;37.13;;;;;;;;;;4956504;28;20019;-63
2022/10/12 19:43:38;;;;;;;61.70;35.72;;;;;;;;;;4973715;28;20395;-60
2022/10/12 19:46:08;;;;;;;64.88;38.08;;;;;;;;;;4973054;28;20043;-61
2022/10/12 19:48:35;;;;;;;61.25;37.92;;;;;;;;;;4973757;28;20120;-66
2022/10/12 19:51:02;;;;;;;60.03;37.17;;;;;;;;;;4973623;28;20027;-59
2022/10/12 19:53:28;;;;;;;61.33;36.83;;;;;;;;;;4972983;28;20094;-60
2022/10/12 19:55:58;;;;;;;57.08;36.58;;;;;;;;;;4973172;28;20038;-60
2022/10/12 19:58:24;;;;;;;64.85;38.38;;;;;;;;;;4973177;28;20109;-67
2022/10/12 20:00:50;;;;;;;61.80;38.35;;;;;;;;;;4972539;28;20371;-60
2022/10/12 20:03:16;;;;;;;55.85;36.58;;;;;;;;;;4956070;28;20379;-60
2022/10/12 20:05:46;;;;;;;60.30;36.97;;;;;;;;;;4973178;28;20027;-59
2022/10/12 20:08:12;;;;;;;61.53;37.13;;;;;;;;;;4973470;28;20173;-65
2022/10/12 20:10:38;;;;;;;57.65;37.22;;;;;;;;;;4973521;28;20019;-59
2022/10/12 20:13:04;;;;;;;64.05;38.05;;;;;;;;;;4973284;28;20161;-59
2022/10/12 20:15:30;;;;;;;68.20;38.45;;;;;;;;;;4972294;28;20155;-58
2022/10/12 20:17:56;;;;;;;58.00;37.75;;;;;;;;;;4972915;28;20082;-59
2022/10/12 20:20:22;;;;;;;59.78;37.03;;;;;;;;;;4972390;28;20034;-59
2022/10/12 20:22:48;;;;;;;67.63;37.42;;;;;;;;;;4972624;28;20070;-59
2022/10/12 20:25:14;;;;;;;65.85;37.85;;;;;;;;;;4972636;28;20026;-59
2022/10/12 20:27:40;;;;;;;64.03;37.78;;;;;;;;;;4972777;28;20051;-59
2022/10/12 20:30:07;;;;;;;57.38;37.60;;;;;;;;;;4972243;28;20796;-58
2022/10/12 20:32:36;;;;;;;60.97;38.40;;;;;;;;;;4972712;28;20114;-59
2022/10/12 20:35:02;;;;;;;58.83;37.35;;;;;;;;;;4955627;28;20035;-65
2022/10/12 20:37:28;;;;;;;61.88;38.40;;;;;;;;;;4972617;28;20049;-67
2022/10/12 20:39:54;;;;;;;63.28;38.65;;;;;;;;;;4972392;28;20542;-58
2022/10/12 20:42:20;;;;;;;65.65;38.22;;;;;;;;;;4972107;28;20117;-59
2022/10/12 20:44:46;;;;;;;62.30;40.22;;;;;;;;;;4972342;28;20612;-59
2022/10/12 20:47:12;;;;;;;58.08;37.03;;;;;;;;;;4972430;28;20480;-60
2022/10/12 20:49:38;;;;;;;55.20;37.25;;;;;;;;;;4972348;28;20416;-59
2022/10/12 20:52:04;;;;;;;60.17;37.22;;;;;;;;;;4972594;28;20027;-59
2022/10/12 20:54:30;;;;;;;58.50;36.72;;;;;;;;;;4972632;28;20037;-59
2022/10/12 20:56:56;;;;;;;58.65;37.25;;;;;;;;;;4972511;28;20039;-59
2022/10/12 20:59:22;;;;;;;59.50;38.45;;;;;;;;;;4971714;28;20027;-60
2022/10/12 21:01:48;;;;;;;62.78;37.22;;;;;;;;;;4971723;28;20813;-59
2022/10/12 21:04:14;;;;;;;57.90;36.20;;;;;;;;;;4971993;28;20105;-59
2022/10/12 21:06:41;;;;;;;62.42;36.70;;;;;;;;;;4972336;28;20467;-59
2022/10/12 21:09:08;;;;;;;51.80;35.47;;;;;;;;;;4971917;28;20031;-60
2022/10/12 21:11:35;;;;;;;53.47;35.05;;;;;;;;;;4972295;28;20038;-59
2022/10/12 21:14:01;;;;;;;54.80;35.03;;;;;;;;;;4971960;28;20580;-60
2022/10/12 21:16:28;;;;;;;62.20;36.22;;;;;;;;;;4971513;28;20411;-65
2022/10/12 21:18:55;;;;;;;61.22;36.22;;;;;;;;;;4972051;28;20038;-70
2022/10/12 21:21:21;;;;;;;55.65;35.22;;;;;;;;;;4971437;28;20027;-59
2022/10/12 21:23:57;;;;;;;56.83;35.50;;;;;;;;;;4972189;28;20027;-68
2022/10/12 21:26:24;;;;;;;56.83;35.33;;;;;;;;;;4972033;28;20023;-59
2022/10/12 21:28:50;;;;;;;55.85;35.30;;;;;;;;;;4971765;28;20027;-59
2022/10/12 21:31:17;;;;;;;52.88;35.05;;;;;;;;;;4971675;28;20030;-59
2022/10/12 21:33:43;;;;;;;56.13;34.55;;;;;;;;;;4971873;28;20073;-72
2022/10/12 21:36:11;;;;;;;54.47;34.08;;;;;;;;;;4972108;28;20034;-60
2022/10/12 21:38:38;;;;;;;56.47;35.22;;;;;;;;;;4971787;28;20039;-70
2022/10/12 21:41:04;;;;;;;57.50;35.00;;;;;;;;;;4971651;28;20061;-60
2022/10/12 21:43:30;;;;;;;55.53;36.08;;;;;;;;;;4971855;28;20027;-60
2022/10/12 21:46:02;;;;;;;59.13;35.30;;;;;;;;;;4972080;28;20035;-71
2022/10/12 21:48:28;;;;;;;53.03;33.83;;;;;;;;;;4971440;28;20461;-63
2022/10/12 21:50:55;;;;;;;55.42;33.42;;;;;;;;;;4954239;28;20518;-59
2022/10/12 21:53:21;;;;;;;54.00;32.20;;;;;;;;;;4971675;28;20045;-60
2022/10/12 21:55:47;;;;;;;53.90;32.88;;;;;;;;;;4971651;28;20446;-59
2022/10/12 21:58:13;;;;;;;52.88;32.42;;;;;;;;;;4971391;28;20428;-69
2022/10/12 22:00:39;;;;;;;53.38;32.28;;;;;;;;;;4970930;28;20019;-59
2022/10/12 22:03:05;;;;;;;51.80;32.22;;;;;;;;;;4971785;28;20817;-59
2022/10/12 22:05:31;;;;;;;48.30;32.00;;;;;;;;;;4971082;28;20039;-60
2022/10/12 22:07:57;;;;;;;46.95;31.00;;;;;;;;;;4971518;28;20483;-59
2022/10/12 22:10:23;;;;;;;48.30;30.13;;;;;;;;;;4973925;28;20043;-59
2022/10/12 22:12:49;;;;;;;47.03;29.95;;;;;;;;;;4975178;28;20034;-59
2022/10/12 22:15:15;;;;;;;51.90;31.20;;;;;;;;;;4974749;28;20058;-59
2022/10/12 22:17:41;;;;;;;48.38;30.20;;;;;;;;;;4974767;28;20483;-64
2022/10/12 22:20:08;;;;;;;50.17;29.55;;;;;;;;;;4975042;28;20031;-59
2022/10/12 22:22:34;;;;;;;45.97;29.80;;;;;;;;;;4974862;28;20038;-59
2022/10/12 22:25:00;;;;;;;51.60;29.23;;;;;;;;;;4957777;28;20039;-59
2022/10/12 22:27:26;;;;;;;49.70;27.90;;;;;;;;;;4975293;28;20509;-69
2022/10/12 22:29:52;;;;;;;49.35;28.95;;;;;;;;;;4975163;28;20042;-65
